Pagrindinis puslapis
METAR-TAF:

METAR-TAF

Oro uostai :

Oslas, Norvegija

platuma: 60-12N, ilguma: 011-05E, Aukštis: 208 m

Dabartinis oras

Ataskaita buvo paskelbta 37 minutes, ne 04:20 UTC
Vėjas 10 kt iš Šiaurės
Temperatūra 3°C
Drėgmė 87%
Slėgis 999 hPa
Matomumas 10 km arba daugiau
Mažai debesys ne aukštis 2300 ft
Su prošvaistėmis ne aukštis 4200 ft

METAR: ENGM 230420Z 01010KT 9999 FEW023 BKN042 03/01 Q0999 NOSIG

Laikas: 06:57 (04:57 UTC)

Prognozė

Prognozė galioja nuo 23 metu 00 UTC su 23 metu 24 UTC
Vėjas 10 kt iš Šiaurės
Matomumas 10 km arba daugiau
Mažai debesys ne aukštis 800 ft
Su prošvaistėmis ne aukštis 1800 ft
Tapsmas
nuo 23 metu 06 UTC su 23 metu 09 UTC
Vėjas 5 kt nuo kintamojo kryptimis
Tapsmas
nuo 23 metu 19 UTC su 23 metu 21 UTC
Su prošvaistėmis ne aukštis 500 ft
Tikimybė 40%
nuo 23 metu 21 UTC su 23 metu 24 UTC
Matomumas: 0400 m
ne aukštis 200 ft
rūkas

TAF: ENGM 2300/2324 36010KT 9999 FEW008 BKN018 BECMG 2306/2309 VRB05KT BECMG 2319/2321 BKN005 PROB40 2321/2324 0400 FG VV002

Orai ataskaitas ir orų prognozės (METAR, TAF).

turimą stotys yra geltonos ir raudonos taškus žemėlapyje.

Perkelti pele per norėdami pamatyti stoties vardą.

Tada spustelėkite, norėdami matyti oro stebėjimo ir prognozės.

Norėdami pakeisti žemėlapį: spustelėkite ant žalios mygtukų su juodo kryžiaus žemyn,; žalią mygtuką su brūkšneliu, jei norite nutolinti; arba žalių rodyklių gretimoms žemėlapius.


METAR-TAF: